Time;durP1;ratioP1;P1;durP2;ratioP2;P2;SDS_P1;SDS_P2;PMS_P1;PMS_P2;Temp;Humidity;BMP_temperature;BMP_pressure;BME280_temperature;BME280_humidity;BME280_pressure;Samples;Min_cycle;Max_cycle;Signal;HPM_P1;HPM_P2
2021/10/26 00:01:24;;;;;;;58.20;39.55;;;11.80;99.90;;;;;;5086443;28;20507;-69
2021/10/26 00:03:50;;;;;;;53.88;39.10;;;11.80;99.90;;;;;;5087430;28;20063;-68
2021/10/26 00:06:16;;;;;;;55.83;39.65;;;11.80;99.90;;;;;;5087690;28;20051;-68
2021/10/26 00:08:42;;;;;;;57.28;40.22;;;11.80;99.90;;;;;;5070697;28;20039;-69
2021/10/26 00:11:08;;;;;;;60.67;39.92;;;11.70;99.90;;;;;;5073183;28;20044;-68
2021/10/26 00:13:34;;;;;;;53.67;40.00;;;11.70;99.90;;;;;;5070176;28;20048;-69
2021/10/26 00:15:59;;;;;;;60.47;40.78;;;11.70;99.90;;;;;;5069920;28;20036;-69
2021/10/26 00:18:25;;;;;;;64.43;41.47;;;11.70;99.90;;;;;;5086242;28;20119;-68
2021/10/26 00:20:51;;;;;;;58.92;40.17;;;11.70;99.90;;;;;;5068721;28;20601;-69
2021/10/26 00:23:17;;;;;;;62.28;43.05;;;11.70;99.90;;;;;;5086525;28;20383;-69
2021/10/26 00:25:43;;;;;;;63.10;43.13;;;11.70;99.90;;;;;;5085293;28;20050;-69
2021/10/26 00:28:09;;;;;;;64.57;42.53;;;11.70;99.90;;;;;;5086791;28;20418;-69
2021/10/26 00:30:35;;;;;;;55.53;40.88;;;11.70;99.90;;;;;;5069761;28;20040;-69
2021/10/26 00:33:03;;;;;;;60.08;42.92;;;11.60;99.90;;;;;;5086289;28;20829;-69
2021/10/26 00:35:30;;;;;;;61.20;41.95;;;11.70;99.90;;;;;;5083243;28;20036;-69
2021/10/26 00:38:00;;;;;;;59.53;41.45;;;11.70;99.90;;;;;;5069681;28;20126;-69
2021/10/26 00:40:27;;;;;;;65.10;43.58;;;11.70;99.90;;;;;;5069743;28;20044;-70
2021/10/26 00:42:53;;;;;;;64.65;43.38;;;11.70;99.90;;;;;;5083506;28;20047;-69
2021/10/26 00:45:19;;;;;;;63.42;41.17;;;11.70;99.90;;;;;;5069149;28;20064;-69
2021/10/26 00:47:45;;;;;;;60.50;43.70;;;11.70;99.90;;;;;;5069047;28;20559;-69
2021/10/26 00:50:11;;;;;;;65.85;44.85;;;11.60;99.90;;;;;;5069779;28;20047;-69
2021/10/26 00:52:37;;;;;;;66.55;44.47;;;11.60;99.90;;;;;;5081991;28;20032;-69
2021/10/26 00:55:05;;;;;;;67.00;43.15;;;11.60;99.90;;;;;;5065619;28;20044;-69
2021/10/26 00:57:33;;;;;;;62.20;44.92;;;11.60;99.90;;;;;;5052686;28;20043;-69
2021/10/26 01:00:00;;;;;;;66.57;45.30;;;11.60;99.90;;;;;;5066349;28;20036;-69
2021/10/26 01:02:25;;;;;;;67.18;46.17;;;11.60;99.90;;;;;;5049565;28;20186;-69
2021/10/26 01:04:51;;;;;;;65.60;46.88;;;11.60;99.90;;;;;;5085998;28;20051;-69
2021/10/26 01:07:17;;;;;;;64.13;45.08;;;11.60;99.90;;;;;;5052419;28;20055;-69
2021/10/26 01:09:45;;;;;;;66.65;45.53;;;11.60;99.90;;;;;;5068997;28;20119;-69
2021/10/26 01:12:13;;;;;;;61.10;43.15;;;11.70;99.90;;;;;;5084655;28;20071;-69
2021/10/26 01:14:40;;;;;;;65.80;43.33;;;11.70;99.90;;;;;;5073641;28;20048;-69
2021/10/26 01:17:08;;;;;;;60.45;42.38;;;11.70;99.90;;;;;;5073561;28;20040;-70
2021/10/26 01:19:51;;;;;;;61.80;43.55;;;11.70;99.90;;;;;;5088471;28;20510;-69
2021/10/26 01:22:18;;;;;;;61.58;42.80;;;11.70;99.90;;;;;;5097668;28;20040;-69
2021/10/26 01:24:45;;;;;;;60.25;43.28;;;11.70;99.90;;;;;;5076210;28;20071;-69
2021/10/26 01:27:12;;;;;;;62.75;42.58;;;11.70;99.90;;;;;;5086767;28;20089;-69
2021/10/26 01:29:38;;;;;;;59.20;42.88;;;11.70;99.90;;;;;;5099741;28;20062;-69
2021/10/26 01:32:05;;;;;;;63.33;43.53;;;11.60;99.90;;;;;;5106001;28;20047;-69
2021/10/26 01:34:32;;;;;;;62.70;44.53;;;11.60;99.90;;;;;;5079583;28;20043;-70
2021/10/26 01:37:06;;;;;;;62.17;43.22;;;11.60;99.90;;;;;;5062904;28;20600;-69
2021/10/26 01:39:32;;;;;;;57.53;41.72;;;11.60;99.90;;;;;;5085547;28;20051;-69
2021/10/26 01:41:59;;;;;;;65.05;42.78;;;11.50;99.90;;;;;;5080456;28;20043;-69
2021/10/26 01:44:25;;;;;;;67.50;44.55;;;11.50;99.90;;;;;;5097568;28;20210;-69
2021/10/26 01:46:52;;;;;;;65.45;43.75;;;11.50;99.90;;;;;;5084200;28;20044;-69
2021/10/26 01:49:19;;;;;;;69.25;43.85;;;11.40;99.90;;;;;;5086320;28;20093;-71
2021/10/26 01:51:47;;;;;;;64.70;42.97;;;11.40;99.90;;;;;;5069827;28;20091;-71
2021/10/26 01:54:14;;;;;;;66.75;43.78;;;11.40;99.90;;;;;;5072791;28;20546;-71
2021/10/26 01:56:41;;;;;;;72.70;45.20;;;11.40;99.90;;;;;;5088315;28;20092;-71
2021/10/26 01:59:08;;;;;;;66.90;44.08;;;11.40;99.90;;;;;;5097044;28;20040;-72
2021/10/26 02:01:34;;;;;;;64.90;44.47;;;11.40;99.90;;;;;;5069692;28;20112;-72
2021/10/26 02:04:00;;;;;;;65.57;43.42;;;11.40;99.90;;;;;;5043066;28;20086;-72
2021/10/26 02:06:26;;;;;;;71.88;45.72;;;11.30;99.90;;;;;;5056322;28;20052;-72
2021/10/26 02:08:51;;;;;;;69.50;43.47;;;11.30;99.90;;;;;;5058922;28;20040;-72
2021/10/26 02:11:18;;;;;;;64.55;42.58;;;11.30;99.90;;;;;;5073901;28;20035;-72
2021/10/26 02:13:43;;;;;;;63.90;42.42;;;11.30;99.90;;;;;;5105337;28;20044;-72
2021/10/26 02:16:12;;;;;;;63.15;41.70;;;11.30;99.90;;;;;;5086378;28;20054;-72
2021/10/26 02:18:41;;;;;;;62.85;41.88;;;11.30;99.90;;;;;;5072141;28;20127;-72
2021/10/26 02:21:06;;;;;;;69.22;43.78;;;11.30;99.90;;;;;;5105541;28;20173;-72
2021/10/26 02:23:32;;;;;;;67.13;42.60;;;11.30;99.90;;;;;;5090389;28;20123;-73
2021/10/26 02:25:58;;;;;;;62.72;42.97;;;11.40;99.90;;;;;;5069304;28;20046;-72
2021/10/26 02:28:24;;;;;;;71.20;45.05;;;11.40;99.90;;;;;;5099521;28;20036;-70
2021/10/26 02:30:50;;;;;;;67.57;42.47;;;11.40;99.90;;;;;;5087342;28;20044;-70
2021/10/26 02:33:17;;;;;;;65.82;44.05;;;11.40;99.90;;;;;;5074122;28;20502;-70
2021/10/26 02:35:43;;;;;;;70.18;44.72;;;11.40;99.90;;;;;;5100241;28;20047;-70
2021/10/26 02:38:09;;;;;;;69.88;44.60;;;11.40;99.90;;;;;;5072462;28;20134;-70
2021/10/26 02:40:34;;;;;;;64.88;44.15;;;11.50;99.90;;;;;;5086454;28;20047;-70
2021/10/26 02:43:00;;;;;;;64.07;43.33;;;11.50;99.90;;;;;;5089557;28;20040;-70
2021/10/26 02:45:29;;;;;;;66.95;42.63;;;11.50;99.90;;;;;;5097000;28;20048;-71
2021/10/26 02:47:59;;;;;;;65.95;41.92;;;11.40;99.90;;;;;;5076672;28;20048;-70
2021/10/26 02:50:26;;;;;;;71.15;41.30;;;11.50;99.90;;;;;;5092569;28;20075;-70
2021/10/26 02:52:52;;;;;;;63.60;41.55;;;11.50;99.90;;;;;;5071665;28;20101;-68
2021/10/26 02:55:18;;;;;;;62.38;40.08;;;11.50;99.90;;;;;;5087101;28;20036;-68
2021/10/26 02:57:45;;;;;;;63.80;40.25;;;11.40;99.90;;;;;;5071889;28;20383;-70
2021/10/26 03:00:11;;;;;;;59.05;37.22;;;11.40;99.90;;;;;;5092390;28;20091;-70
2021/10/26 03:02:38;;;;;;;56.97;36.05;;;11.40;99.90;;;;;;5087087;28;20056;-70
2021/10/26 03:05:05;;;;;;;52.63;34.20;;;11.40;99.90;;;;;;5091086;28;20067;-68
2021/10/26 03:07:44;;;;;;;46.75;32.15;;;11.30;99.90;;;;;;5105344;28;20123;-70
2021/10/26 03:10:11;;;;;;;52.47;32.47;;;11.30;99.90;;;;;;5091687;28;20050;-70
2021/10/26 03:12:37;;;;;;;50.47;31.80;;;11.20;99.90;;;;;;5074659;28;20073;-70
2021/10/26 03:15:08;;;;;;;45.60;29.73;;;11.20;99.90;;;;;;5106580;28;20405;-70
2021/10/26 03:17:34;;;;;;;43.28;28.20;;;11.10;99.90;;;;;;5087751;28;20051;-70
2021/10/26 03:20:01;;;;;;;41.30;28.50;;;11.00;99.90;;;;;;5077074;28;20549;-69
2021/10/26 03:22:29;;;;;;;43.83;28.45;;;11.00;99.90;;;;;;5052280;28;20063;-68
2021/10/26 03:24:55;;;;;;;45.42;27.60;;;10.90;99.90;;;;;;5089830;28;20044;-69
2021/10/26 03:27:21;;;;;;;39.38;26.40;;;10.90;99.90;;;;;;5054612;28;20056;-69
2021/10/26 03:29:47;;;;;;;45.92;27.50;;;10.80;99.90;;;;;;5100124;28;20048;-69
2021/10/26 03:32:13;;;;;;;39.25;25.42;;;10.80;99.90;;;;;;5091335;28;20072;-69
2021/10/26 03:34:39;;;;;;;38.58;25.38;;;10.70;99.90;;;;;;5076546;28;20106;-69
2021/10/26 03:37:06;;;;;;;38.40;24.92;;;10.70;99.90;;;;;;5079711;28;20067;-69
2021/10/26 03:39:32;;;;;;;42.22;25.98;;;10.70;99.90;;;;;;5093359;28;20441;-69
2021/10/26 03:41:58;;;;;;;42.75;27.88;;;10.70;99.90;;;;;;5071861;28;20127;-69
2021/10/26 03:44:24;;;;;;;41.80;26.85;;;10.60;99.90;;;;;;5054614;28;20039;-69
2021/10/26 03:46:50;;;;;;;40.45;27.75;;;10.50;99.90;;;;;;5071626;28;20513;-69
2021/10/26 03:49:16;;;;;;;50.63;29.98;;;10.50;99.90;;;;;;5071503;28;20387;-69
2021/10/26 03:51:42;;;;;;;45.30;28.80;;;10.50;99.90;;;;;;5090247;28;20047;-69
2021/10/26 03:54:07;;;;;;;60.33;33.35;;;10.50;99.90;;;;;;5053471;28;20384;-69
2021/10/26 03:56:33;;;;;;;51.63;32.40;;;10.50;99.90;;;;;;5075708;28;20044;-69
2021/10/26 03:59:02;;;;;;;49.45;31.00;;;10.50;99.90;;;;;;5108411;28;20123;-69
2021/10/26 04:01:28;;;;;;;50.22;31.30;;;10.40;99.90;;;;;;5077648;28;20060;-69
2021/10/26 04:03:54;;;;;;;62.13;35.97;;;10.50;99.90;;;;;;5055211;28;20443;-69
2021/10/26 04:06:23;;;;;;;57.28;34.22;;;10.50;99.90;;;;;;5071238;28;20366;-69
2021/10/26 04:08:55;;;;;;;62.58;36.25;;;10.50;99.90;;;;;;5071582;28;20140;-69
2021/10/26 04:11:26;;;;;;;71.75;38.85;;;10.50;99.90;;;;;;5071941;28;20341;-69
2021/10/26 04:13:53;;;;;;;75.53;40.22;;;10.40;99.90;;;;;;5088988;28;20638;-69
2021/10/26 04:16:20;;;;;;;68.57;39.28;;;10.40;99.90;;;;;;5088296;28;20100;-69
2021/10/26 04:18:46;;;;;;;64.50;37.95;;;10.40;99.90;;;;;;5056633;28;20792;-69
2021/10/26 04:21:13;;;;;;;69.00;40.45;;;10.40;99.90;;;;;;5073736;28;20515;-69
2021/10/26 04:23:39;;;;;;;76.68;40.20;;;10.40;99.90;;;;;;5067729;28;20107;-69
2021/10/26 04:26:06;;;;;;;84.90;41.15;;;10.40;99.90;;;;;;5068022;28;20084;-69
2021/10/26 04:28:33;;;;;;;83.18;42.67;;;10.30;99.90;;;;;;5067517;28;20043;-69
2021/10/26 04:31:02;;;;;;;87.63;43.22;;;10.30;99.90;;;;;;5068825;28;20048;-69
2021/10/26 04:33:28;;;;;;;84.60;41.30;;;10.30;99.90;;;;;;5058878;28;20694;-69
2021/10/26 04:35:55;;;;;;;83.65;44.72;;;10.30;99.90;;;;;;5068366;28;20052;-69
2021/10/26 04:38:21;;;;;;;92.78;41.25;;;10.20;99.90;;;;;;5068455;28;20194;-69
2021/10/26 04:40:48;;;;;;;86.63;41.58;;;10.20;99.90;;;;;;5081711;28;20043;-69
2021/10/26 04:43:17;;;;;;;83.07;43.00;;;10.20;99.90;;;;;;5087892;28;20122;-69
2021/10/26 04:45:43;;;;;;;74.15;40.25;;;10.20;99.90;;;;;;5087498;28;20398;-69
2021/10/26 04:48:16;;;;;;;74.18;40.75;;;10.10;99.90;;;;;;5070832;28;20071;-69
2021/10/26 04:50:43;;;;;;;89.40;44.03;;;10.10;99.90;;;;;;5087320;28;20048;-69
2021/10/26 04:53:09;;;;;;;99.05;45.08;;;10.10;99.90;;;;;;5088261;28;20159;-69
2021/10/26 04:55:34;;;;;;;77.40;40.80;;;10.10;99.90;;;;;;5070651;28;20463;-69
2021/10/26 04:58:00;;;;;;;75.95;40.42;;;10.10;99.90;;;;;;5085204;28;20402;-69
2021/10/26 05:00:29;;;;;;;85.88;43.20;;;10.20;99.90;;;;;;5051375;28;20150;-69
2021/10/26 05:02:57;;;;;;;95.82;45.55;;;10.20;99.90;;;;;;5067147;28;20052;-69
2021/10/26 05:05:23;;;;;;;94.45;45.75;;;10.30;99.90;;;;;;5067163;28;20391;-69
2021/10/26 05:07:50;;;;;;;102.35;46.03;;;10.40;99.90;;;;;;5070310;28;20553;-70
2021/10/26 05:10:16;;;;;;;102.88;46.67;;;10.40;99.90;;;;;;5087984;28;20138;-69
2021/10/26 05:12:42;;;;;;;106.57;47.63;;;10.50;99.90;;;;;;5068278;28;20042;-70
2021/10/26 05:15:08;;;;;;;112.05;48.13;;;10.50;99.90;;;;;;5084154;28;20048;-69
2021/10/26 05:17:34;;;;;;;113.70;47.67;;;10.60;99.90;;;;;;5086903;28;20046;-69
2021/10/26 05:20:02;;;;;;;103.45;47.92;;;10.60;99.90;;;;;;5080031;28;20666;-69
2021/10/26 05:22:37;;;;;;;107.85;47.00;;;10.60;99.90;;;;;;5052058;28;20039;-70
2021/10/26 05:25:03;;;;;;;103.32;47.28;;;10.60;99.90;;;;;;5071108;28;20043;-69
2021/10/26 05:27:29;;;;;;;96.90;44.72;;;10.70;99.90;;;;;;5094108;28;20043;-70
2021/10/26 05:29:55;;;;;;;96.72;43.70;;;10.70;99.90;;;;;;5069410;28;20046;-69
2021/10/26 05:32:20;;;;;;;102.18;44.53;;;10.80;99.90;;;;;;5069806;28;20032;-69
2021/10/26 05:34:46;;;;;;;96.80;44.03;;;10.70;99.90;;;;;;5054802;28;20491;-69
2021/10/26 05:37:12;;;;;;;90.22;43.78;;;10.80;99.90;;;;;;5085050;28;20044;-69
2021/10/26 05:39:39;;;;;;;95.78;43.30;;;10.80;99.90;;;;;;5075280;28;20099;-69
2021/10/26 05:42:06;;;;;;;91.57;42.80;;;10.80;99.90;;;;;;5079495;28;20394;-70
2021/10/26 05:44:33;;;;;;;89.18;43.50;;;10.80;99.90;;;;;;5083187;28;20092;-70
2021/10/26 05:46:59;;;;;;;98.43;42.28;;;10.80;99.90;;;;;;5089901;28;20464;-71
2021/10/26 05:49:25;;;;;;;98.53;43.33;;;10.80;99.90;;;;;;5049248;28;20487;-70
2021/10/26 05:51:51;;;;;;;96.72;41.67;;;10.80;99.90;;;;;;5084685;28;20042;-70
2021/10/26 05:54:16;;;;;;;103.78;43.17;;;10.80;99.90;;;;;;5055397;28;20042;-71
2021/10/26 05:56:42;;;;;;;89.63;41.40;;;10.80;99.90;;;;;;5094592;28;20051;-70
2021/10/26 05:59:08;;;;;;;89.93;41.42;;;10.80;99.90;;;;;;5094423;28;20743;-70
2021/10/26 06:01:34;;;;;;;91.32;41.78;;;10.80;99.90;;;;;;5055260;28;20048;-70
2021/10/26 06:04:02;;;;;;;103.95;43.42;;;10.80;99.90;;;;;;5087536;28;20494;-70
2021/10/26 06:06:28;;;;;;;92.85;40.03;;;10.80;99.90;;;;;;5089634;28;20096;-70
2021/10/26 06:08:54;;;;;;;99.20;43.10;;;10.80;99.90;;;;;;5088618;28;21185;-70
2021/10/26 06:11:23;;;;;;;103.95;42.47;;;10.80;99.90;;;;;;5087498;28;20059;-70
2021/10/26 06:14:00;;;;;;;112.13;45.25;;;10.90;99.90;;;;;;5067196;28;20044;-70
2021/10/26 06:16:30;;;;;;;111.03;45.28;;;10.80;99.90;;;;;;5067392;28;20375;-70
2021/10/26 06:18:56;;;;;;;93.38;41.65;;;10.90;99.90;;;;;;5083666;28;20040;-70
2021/10/26 06:21:22;;;;;;;94.13;41.72;;;10.90;99.90;;;;;;5071409;28;20490;-70
2021/10/26 06:23:48;;;;;;;91.25;41.08;;;10.90;99.90;;;;;;5053850;28;20904;-71
2021/10/26 06:26:14;;;;;;;94.78;41.78;;;10.90;99.90;;;;;;5079226;28;20100;-71
2021/10/26 06:28:42;;;;;;;93.80;41.92;;;10.90;99.90;;;;;;5089306;28;20498;-70
2021/10/26 06:31:08;;;;;;;96.90;43.22;;;10.90;99.90;;;;;;5092749;28;20040;-70
2021/10/26 06:33:33;;;;;;;88.82;42.20;;;11.00;99.90;;;;;;5102431;28;20101;-70
2021/10/26 06:35:59;;;;;;;89.72;41.97;;;11.00;99.90;;;;;;5079459;28;20073;-70
2021/10/26 06:38:25;;;;;;;77.38;39.78;;;11.00;99.90;;;;;;5085218;28;20548;-70
2021/10/26 06:40:51;;;;;;;85.75;41.30;;;11.00;99.90;;;;;;5053588;28;20657;-70
2021/10/26 06:43:17;;;;;;;80.85;40.70;;;11.00;99.90;;;;;;5085738;28;20041;-71
2021/10/26 06:45:43;;;;;;;88.80;42.85;;;11.00;99.90;;;;;;5084427;28;20045;-70
2021/10/26 06:48:09;;;;;;;87.00;42.70;;;11.10;99.90;;;;;;5068336;28;20478;-70
2021/10/26 06:50:34;;;;;;;89.03;40.22;;;11.10;99.90;;;;;;5089893;28;20040;-69
2021/10/26 06:53:00;;;;;;;86.80;43.05;;;11.10;99.90;;;;;;5088512;28;20040;-69
2021/10/26 06:55:26;;;;;;;80.90;41.95;;;11.10;99.90;;;;;;5066889;28;20067;-70
2021/10/26 06:57:52;;;;;;;91.93;44.17;;;11.10;99.90;;;;;;5055823;28;20498;-70
2021/10/26 07:00:19;;;;;;;95.07;43.67;;;11.10;99.90;;;;;;5070333;28;20047;-69
2021/10/26 07:02:50;;;;;;;85.53;44.42;;;11.10;99.90;;;;;;5103611;28;20048;-70
2021/10/26 07:05:24;;;;;;;88.10;42.95;;;11.10;99.90;;;;;;5062581;28;20048;-70
2021/10/26 07:07:50;;;;;;;79.15;42.83;;;11.20;99.90;;;;;;5074150;28;20040;-69
2021/10/26 07:10:17;;;;;;;81.80;43.78;;;11.10;99.90;;;;;;5072042;28;20087;-70
2021/10/26 07:12:43;;;;;;;79.28;42.90;;;11.20;99.90;;;;;;5060410;28;20088;-70
2021/10/26 07:15:11;;;;;;;85.18;43.50;;;11.20;99.90;;;;;;5100454;28;20051;-70
2021/10/26 07:17:38;;;;;;;81.13;42.50;;;11.10;99.90;;;;;;5076630;28;20386;-70
2021/10/26 07:20:07;;;;;;;79.65;42.28;;;11.20;99.90;;;;;;5060321;28;20131;-69
2021/10/26 07:22:34;;;;;;;74.03;40.00;;;11.20;99.90;;;;;;5080203;28;20494;-70
2021/10/26 07:25:04;;;;;;;75.65;40.95;;;11.20;99.90;;;;;;5094168;28;20040;-70
2021/10/26 07:27:30;;;;;;;77.38;40.17;;;11.20;99.90;;;;;;5079018;28;20047;-70
2021/10/26 07:29:56;;;;;;;71.47;39.78;;;11.20;99.90;;;;;;5098107;28;20398;-70
2021/10/26 07:32:22;;;;;;;70.07;38.10;;;11.20;99.90;;;;;;5062730;28;20047;-70
2021/10/26 07:34:48;;;;;;;69.43;37.70;;;11.20;99.90;;;;;;5089727;28;20173;-70
2021/10/26 07:37:16;;;;;;;76.32;39.13;;;11.20;99.90;;;;;;5086942;28;20134;-70
2021/10/26 07:39:51;;;;;;;66.38;38.50;;;11.30;99.90;;;;;;5074814;28;20039;-70
2021/10/26 07:42:19;;;;;;;73.65;39.25;;;11.20;99.90;;;;;;5066937;28;20550;-70
2021/10/26 07:44:47;;;;;;;68.38;38.78;;;11.30;99.90;;;;;;5093429;28;20036;-70
2021/10/26 07:47:16;;;;;;;70.53;37.38;;;11.30;99.90;;;;;;5085499;28;20905;-70
2021/10/26 07:49:44;;;;;;;67.78;38.38;;;11.30;99.90;;;;;;5068180;28;20048;-70
2021/10/26 07:52:11;;;;;;;68.47;38.15;;;11.30;99.90;;;;;;5070818;28;20417;-70
2021/10/26 07:54:37;;;;;;;69.28;38.75;;;11.30;99.90;;;;;;5083815;28;20101;-70
2021/10/26 07:57:04;;;;;;;67.72;38.92;;;11.40;99.90;;;;;;5090978;28;20050;-70
2021/10/26 07:59:30;;;;;;;61.80;37.30;;;11.40;99.90;;;;;;5090525;28;20074;-70
2021/10/26 08:01:56;;;;;;;66.00;38.03;;;11.40;99.90;;;;;;5105954;28;20048;-70
2021/10/26 08:04:22;;;;;;;63.95;37.80;;;11.40;99.90;;;;;;5077145;28;20070;-70
2021/10/26 08:06:49;;;;;;;67.93;38.42;;;11.40;99.90;;;;;;5069496;28;20514;-70
2021/10/26 08:09:18;;;;;;;63.83;38.20;;;11.40;99.90;;;;;;5085279;28;20043;-70
2021/10/26 08:11:44;;;;;;;60.17;35.63;;;11.40;99.90;;;;;;5088861;28;20495;-70
2021/10/26 08:14:10;;;;;;;54.83;33.10;;;11.50;99.90;;;;;;5088483;28;20039;-70
2021/10/26 08:16:36;;;;;;;53.42;33.42;;;11.50;99.90;;;;;;5084705;28;20036;-70
2021/10/26 08:19:03;;;;;;;56.08;36.25;;;11.50;99.90;;;;;;5085592;28;20043;-70
2021/10/26 08:21:29;;;;;;;56.97;34.47;;;11.50;99.90;;;;;;5096408;28;20071;-71
2021/10/26 08:23:56;;;;;;;63.22;36.55;;;11.50;99.90;;;;;;5067759;28;20066;-71
2021/10/26 08:26:32;;;;;;;52.90;35.40;;;11.50;99.90;;;;;;5086767;28;20538;-71
2021/10/26 08:29:31;;;;;;;56.95;34.70;;;11.50;99.90;;;;;;5084357;28;20546;-71
2021/10/26 08:32:24;;;;;;;54.72;35.17;;;11.50;99.90;;;;;;5070758;28;20056;-71
2021/10/26 08:34:51;;;;;;;53.63;35.38;;;11.60;99.90;;;;;;5072137;28;20044;-71
2021/10/26 08:37:17;;;;;;;58.38;35.22;;;11.60;99.90;;;;;;5055560;28;20040;-71
2021/10/26 08:39:46;;;;;;;55.00;35.00;;;11.70;99.90;;;;;;5082186;28;20051;-70
2021/10/26 08:42:17;;;;;;;43.88;30.60;;;11.80;99.90;;;;;;5032584;28;20041;-70
2021/10/26 08:44:43;;;;;;;47.55;31.73;;;11.90;99.90;;;;;;5083268;28;20041;-70
2021/10/26 08:47:15;;;;;;;48.30;31.60;;;11.90;99.90;;;;;;5077428;28;20051;-71
2021/10/26 08:49:45;;;;;;;45.95;29.25;;;12.00;99.90;;;;;;5091391;28;20047;-70
2021/10/26 08:52:11;;;;;;;45.13;29.08;;;12.00;99.90;;;;;;5061222;28;20040;-71
2021/10/26 08:54:37;;;;;;;45.72;30.15;;;12.00;99.90;;;;;;5085631;28;20068;-70
2021/10/26 08:57:03;;;;;;;41.53;27.50;;;12.00;99.90;;;;;;5072781;28;20039;-69
2021/10/26 08:59:30;;;;;;;44.10;28.48;;;12.00;99.90;;;;;;5056513;28;20047;-69
2021/10/26 09:01:59;;;;;;;48.10;28.90;;;12.10;99.90;;;;;;5092728;28;20051;-70
2021/10/26 09:04:34;;;;;;;39.60;25.83;;;12.10;99.90;;;;;;5089116;28;20039;-69
2021/10/26 09:07:05;;;;;;;43.88;27.25;;;12.10;99.90;;;;;;5103754;28;20138;-70
2021/10/26 09:09:35;;;;;;;42.95;26.23;;;12.10;99.90;;;;;;5100934;28;20108;-69
2021/10/26 09:17:28;;;;;;;36.05;24.05;;;12.30;99.90;;;;;;5090742;28;20155;-69
2021/10/26 09:19:59;;;;;;;40.70;25.25;;;12.40;99.90;;;;;;5066764;28;20521;-70
2021/10/26 09:22:27;;;;;;;36.83;23.20;;;12.50;99.90;;;;;;5071707;28;20051;-70
2021/10/26 09:25:20;;;;;;;38.38;22.88;;;12.50;99.90;;;;;;5061019;28;20078;-70
2021/10/26 09:27:49;;;;;;;37.05;22.23;;;12.60;99.90;;;;;;5061573;28;20117;-70
2021/10/26 09:30:19;;;;;;;36.17;23.60;;;12.60;99.90;;;;;;5069933;28;20154;-69
2021/10/26 09:32:47;;;;;;;38.22;24.65;;;12.60;99.90;;;;;;5087688;28;20114;-69
2021/10/26 09:35:16;;;;;;;32.53;21.80;;;12.50;99.90;;;;;;5069380;28;20058;-70
2021/10/26 09:37:45;;;;;;;36.63;24.02;;;12.60;99.90;;;;;;5068579;28;20122;-69
2021/10/26 09:40:12;;;;;;;34.85;23.75;;;12.60;99.90;;;;;;5085563;28;20127;-70
2021/10/26 09:42:44;;;;;;;39.28;24.55;;;12.60;99.90;;;;;;5085008;28;20109;-69
2021/10/26 09:45:32;;;;;;;38.15;24.08;;;12.50;99.90;;;;;;5068073;28;20067;-70
2021/10/26 09:48:08;;;;;;;35.47;24.45;;;12.50;99.90;;;;;;5081493;28;20410;-70
2021/10/26 09:50:35;;;;;;;36.22;24.70;;;12.50;99.90;;;;;;5081773;28;20044;-69
2021/10/26 09:53:05;;;;;;;37.28;24.60;;;12.50;99.90;;;;;;5059290;28;20150;-70
2021/10/26 09:55:37;;;;;;;36.80;24.55;;;12.60;99.90;;;;;;5064876;28;20232;-70
2021/10/26 09:58:08;;;;;;;41.85;26.95;;;12.60;99.90;;;;;;5078655;28;20044;-70
2021/10/26 10:00:42;;;;;;;38.15;24.48;;;12.70;99.90;;;;;;5079097;28;20040;-70
2021/10/26 10:03:13;;;;;;;35.83;26.02;;;12.70;99.90;;;;;;5061823;28;20510;-70
2021/10/26 10:06:00;;;;;;;44.17;25.55;;;12.70;99.90;;;;;;5071989;28;20058;-70
2021/10/26 10:08:34;;;;;;;38.20;24.13;;;12.80;99.90;;;;;;5078122;28;20040;-70
2021/10/26 10:11:19;;;;;;;35.72;23.90;;;12.90;99.90;;;;;;5064956;28;20486;-71
2021/10/26 10:13:56;;;;;;;36.42;23.63;;;13.00;99.90;;;;;;5067331;28;20392;-70
2021/10/26 10:16:26;;;;;;;33.38;23.75;;;13.10;99.90;;;;;;5080990;28;20091;-70
2021/10/26 10:18:53;;;;;;;32.70;22.52;;;13.20;99.90;;;;;;5078580;28;20070;-70
2021/10/26 10:21:29;;;;;;;30.98;20.63;;;13.20;99.90;;;;;;5061279;28;20432;-70
2021/10/26 10:24:01;;;;;;;32.83;21.08;;;13.20;99.90;;;;;;5074220;28;20142;-70
2021/10/26 10:26:30;;;;;;;29.58;20.88;;;13.30;99.90;;;;;;5077133;28;20051;-69
2021/10/26 10:29:00;;;;;;;28.20;17.55;;;13.30;99.90;;;;;;5066722;28;20517;-69
2021/10/26 10:31:26;;;;;;;25.98;17.85;;;13.40;99.90;;;;;;5051418;28;20583;-70
2021/10/26 10:33:59;;;;;;;28.33;16.92;;;13.40;99.90;;;;;;5050070;28;20048;-70
2021/10/26 10:36:26;;;;;;;29.83;17.45;;;13.40;99.90;;;;;;5082907;28;20044;-69
2021/10/26 10:38:54;;;;;;;26.23;17.63;;;13.50;99.90;;;;;;5077629;28;20127;-70
2021/10/26 10:41:34;;;;;;;27.42;17.80;;;13.50;99.90;;;;;;5087867;28;20094;-70
2021/10/26 10:44:03;;;;;;;30.23;18.52;;;13.60;99.90;;;;;;5074115;28;20066;-70
2021/10/26 10:46:47;;;;;;;32.55;18.23;;;13.60;99.90;;;;;;5053908;28;20052;-69
2021/10/26 10:49:39;;;;;;;24.92;16.67;;;13.70;99.90;;;;;;5066090;28;20047;-70
2021/10/26 10:52:12;;;;;;;27.05;16.40;;;13.90;99.90;;;;;;5078842;28;20387;-71
2021/10/26 10:54:54;;;;;;;24.20;15.65;;;14.00;99.90;;;;;;5083958;28;20044;-71
2021/10/26 10:57:35;;;;;;;25.13;15.63;;;14.10;99.90;;;;;;5082738;28;20048;-70
2021/10/26 11:00:12;;;;;;;23.02;15.15;;;14.10;99.90;;;;;;5084961;28;20048;-70
2021/10/26 11:02:40;;;;;;;23.10;15.55;;;14.00;99.90;;;;;;5078051;28;20056;-70
2021/10/26 11:05:06;;;;;;;24.70;15.00;;;14.00;99.90;;;;;;5060753;28;20045;-70
2021/10/26 11:07:41;;;;;;;24.08;14.40;;;13.90;99.90;;;;;;5084042;28;20334;-70
2021/10/26 11:10:13;;;;;;;19.60;14.43;;;13.90;99.90;;;;;;5076986;28;20427;-71
2021/10/26 11:12:39;;;;;;;26.27;16.08;;;13.90;99.90;;;;;;5068665;28;20040;-70
2021/10/26 11:15:10;;;;;;;23.08;14.32;;;13.80;99.90;;;;;;5078893;28;20073;-70
2021/10/26 11:17:36;;;;;;;20.15;13.90;;;13.80;99.90;;;;;;5065621;28;20368;-70
2021/10/26 11:20:07;;;;;;;25.40;14.63;;;13.80;99.90;;;;;;5075979;28;20056;-70
2021/10/26 11:22:45;;;;;;;26.83;13.80;;;13.80;99.90;;;;;;5069419;28;20036;-70
2021/10/26 11:25:31;;;;;;;19.98;12.20;;;13.80;99.90;;;;;;5053139;28;20053;-70
2021/10/26 11:27:58;;;;;;;18.27;11.00;;;13.80;99.90;;;;;;5054734;28;20082;-70
2021/10/26 11:30:27;;;;;;;16.83;10.43;;;13.80;99.90;;;;;;5090345;28;20409;-70
2021/10/26 11:33:15;;;;;;;17.45;10.73;;;13.80;99.90;;;;;;5073488;28;20494;-72
2021/10/26 11:36:16;;;;;;;18.20;10.75;;;13.80;99.90;;;;;;5071416;28;20044;-71
2021/10/26 11:38:44;;;;;;;20.45;11.52;;;13.80;99.90;;;;;;5086947;28;20123;-71
2021/10/26 11:41:16;;;;;;;18.02;11.40;;;13.70;99.90;;;;;;5087547;28;20123;-71
2021/10/26 11:43:57;;;;;;;26.40;13.77;;;13.70;99.90;;;;;;5071226;28;20036;-71
2021/10/26 11:46:35;;;;;;;27.90;15.23;;;13.70;99.90;;;;;;5072570;28;20052;-71
2021/10/26 11:49:07;;;;;;;21.35;14.80;;;13.70;99.90;;;;;;5088417;28;20101;-72
2021/10/26 11:51:42;;;;;;;28.83;14.70;;;13.70;99.90;;;;;;5087841;28;20066;-71
2021/10/26 11:54:17;;;;;;;26.95;14.93;;;13.70;99.90;;;;;;5088998;28;20414;-71
2021/10/26 11:56:49;;;;;;;26.15;14.65;;;13.80;99.90;;;;;;5071094;28;20048;-70
2021/10/26 11:59:25;;;;;;;25.88;15.23;;;13.70;99.90;;;;;;5071802;28;20055;-70
2021/10/26 12:02:05;;;;;;;25.17;15.57;;;13.80;99.90;;;;;;5087619;28;20056;-70
2021/10/26 12:04:35;;;;;;;23.92;16.10;;;13.80;99.90;;;;;;5088576;28;20513;-70
2021/10/26 12:07:05;;;;;;;26.17;16.65;;;13.80;99.90;;;;;;5076542;28;20052;-70
2021/10/26 12:09:33;;;;;;;27.05;17.52;;;13.80;99.90;;;;;;5068041;28;20118;-70
2021/10/26 12:12:04;;;;;;;25.73;16.75;;;13.80;99.90;;;;;;5067605;28;20036;-71
2021/10/26 12:14:33;;;;;;;25.08;17.52;;;13.80;99.90;;;;;;5071294;28;20044;-70
2021/10/26 12:17:25;;;;;;;29.83;18.90;;;13.80;99.90;;;;;;5054371;28;20052;-71
2021/10/26 12:20:23;;;;;;;29.23;18.77;;;13.80;99.90;;;;;;5051089;28;20048;-70
2021/10/26 12:22:56;;;;;;;24.95;19.08;;;13.80;99.90;;;;;;5085969;28;20078;-70
2021/10/26 12:25:33;;;;;;;31.38;19.40;;;13.80;99.90;;;;;;5088310;28;20452;-70
2021/10/26 12:28:00;;;;;;;27.70;18.92;;;13.80;99.90;;;;;;5087779;28;20357;-70
2021/10/26 12:30:27;;;;;;;28.95;20.90;;;13.70;99.90;;;;;;5087608;28;20077;-70
2021/10/26 12:32:54;;;;;;;30.02;19.58;;;13.70;99.90;;;;;;5087335;28;20094;-70
2021/10/26 12:35:28;;;;;;;31.65;20.15;;;13.70;99.90;;;;;;5086827;28;20469;-69
2021/10/26 12:38:09;;;;;;;30.58;22.40;;;13.60;99.90;;;;;;5085636;28;20040;-70
2021/10/26 12:40:44;;;;;;;30.45;21.92;;;13.70;99.90;;;;;;5087449;28;20066;-70